Burnet, TX

8:01 AM CST on December 10, 2016 (GMT -0600)
Bauer Farms | | Change Station

Elev 1476 ft 30.77 °N, 98.26 °W | Updated 4 minutes ago

Overcast
Overcast
37.6 °F
Feels Like 34 °F
N
4.2
Wind Variable Wind from SSE

Today
High -- | Low -- °F
--% Chance of Precip.
Yesterday
High -- | Low -- °F
Precip. -- in
Pressure 30.45 in
Visibility 10.0 miles
Clouds Overcast 3200 ft
Windchill 34 °F
Dew Point 28 °F
Humidity 67%
Rainfall 0.00 in
Snow Depth Not available.
7:20 AM 5:31 PM
Waxing Gibbous, 83% visible
METAR KBMQ 101353Z AUTO 15006KT 10SM OVC032 04/M03 A3043 RMK AO2 SLP309 T00391033
Pressure 30.45 in
Visibility 10.0 miles
Clouds Overcast 3200 ft
Windchill 34 °F
Dew Point 28 °F
Humidity 67%
Rainfall 0.00 in
Snow Depth Not available.
7:20 AM 5:31 PM
Waxing Gibbous, 83% visible
METAR KBMQ 101353Z AUTO 15006KT 10SM OVC032 04/M03 A3043 RMK AO2 SLP309 T00391033

10-Day Weather Forecast

Almanac

Astronomy

Dec. 10, 2016 Rise Set
Actual Time
Civil Twilight
Nautical Twilight
Astronomical Twilight
Moon
Length of Visible Light
Length of Day
Tomorrow will be .
, % of the Moon is Illuminated

Today's Extremes

State Highs State Lows

Community

WunderPhotos

Upload Photos

1,956,549 photos uploaded!

WunderBlog® & News

Nearby

Air Quality

  Air Quality AQ Index Pollutant
Not available.

Snow Depth

Station Depth Elevation

Earthquake Activity

City Distance Mag. Time & Date
Minimum magnitude displayed is 2.5.

Coastal Water Temperatures

Place Temperature

Stations

Nearby Weather Stations

Station Location Temp. Windchill Dew Point Humidity Wind Precip. Elev Updated Type
                   

Watches & Warnings

There are currently no watches in effect.